sensor_id;sensor_type;location;lat;lon;timestamp;temperature;humidity
45313;SHT31;68267;51.540;5.854;2023-07-16T00:09:03;18.0;89.2
45313;SHT31;68267;51.540;5.854;2023-07-16T00:22:22;17.8;88.9
45313;SHT31;68267;51.540;5.854;2023-07-16T00:35:42;17.7;89.0
45313;SHT31;68267;51.540;5.854;2023-07-16T00:49:02;17.5;89.5
45313;SHT31;68267;51.540;5.854;2023-07-16T01:02:21;17.4;90.1
45313;SHT31;68267;51.540;5.854;2023-07-16T01:15:41;17.3;90.6
45313;SHT31;68267;51.540;5.854;2023-07-16T01:29:00;17.3;90.7
45313;SHT31;68267;51.540;5.854;2023-07-16T01:42:20;17.2;90.5
45313;SHT31;68267;51.540;5.854;2023-07-16T01:55:40;16.9;90.2
45313;SHT31;68267;51.540;5.854;2023-07-16T02:09:00;16.8;90.3
45313;SHT31;68267;51.540;5.854;2023-07-16T02:22:20;16.6;90.8
45313;SHT31;68267;51.540;5.854;2023-07-16T02:35:39;16.4;91.5
45313;SHT31;68267;51.540;5.854;2023-07-16T02:48:59;16.4;91.6
45313;SHT31;68267;51.540;5.854;2023-07-16T03:02:19;16.3;91.6
45313;SHT31;68267;51.540;5.854;2023-07-16T03:15:38;16.1;90.4
45313;SHT31;68267;51.540;5.854;2023-07-16T03:28:58;15.9;86.7
45313;SHT31;68267;51.540;5.854;2023-07-16T03:42:18;15.8;83.7
45313;SHT31;68267;51.540;5.854;2023-07-16T03:55:38;15.6;83.5
45313;SHT31;68267;51.540;5.854;2023-07-16T04:08:58;15.6;84.4
45313;SHT31;68267;51.540;5.854;2023-07-16T04:22:17;15.6;83.2
45313;SHT31;68267;51.540;5.854;2023-07-16T04:35:37;15.6;82.1
45313;SHT31;68267;51.540;5.854;2023-07-16T04:48:57;15.6;80.8
45313;SHT31;68267;51.540;5.854;2023-07-16T05:02:17;15.6;80.4
45313;SHT31;68267;51.540;5.854;2023-07-16T05:15:37;15.8;80.0
45313;SHT31;68267;51.540;5.854;2023-07-16T05:28:56;15.8;78.1
45313;SHT31;68267;51.540;5.854;2023-07-16T05:42:16;16.0;76.9
45313;SHT31;68267;51.540;5.854;2023-07-16T05:55:36;16.2;76.9
45313;SHT31;68267;51.540;5.854;2023-07-16T06:08:55;16.5;75.9
45313;SHT31;68267;51.540;5.854;2023-07-16T06:22:15;16.8;73.6
45313;SHT31;68267;51.540;5.854;2023-07-16T06:35:35;16.9;73.7
45313;SHT31;68267;51.540;5.854;2023-07-16T06:48:55;17.4;72.3
45313;SHT31;68267;51.540;5.854;2023-07-16T07:02:14;17.7;70.8
45313;SHT31;68267;51.540;5.854;2023-07-16T07:15:34;17.8;70.2
45313;SHT31;68267;51.540;5.854;2023-07-16T07:28:54;18.2;69.4
45313;SHT31;68267;51.540;5.854;2023-07-16T07:42:13;18.6;70.0
45313;SHT31;68267;51.540;5.854;2023-07-16T07:55:33;18.6;68.0
45313;SHT31;68267;51.540;5.854;2023-07-16T08:08:53;19.3;66.9
45313;SHT31;68267;51.540;5.854;2023-07-16T08:22:12;19.4;66.5
45313;SHT31;68267;51.540;5.854;2023-07-16T08:35:32;19.1;65.7
45313;SHT31;68267;51.540;5.854;2023-07-16T08:48:52;19.7;65.9
45313;SHT31;68267;51.540;5.854;2023-07-16T09:02:12;20.2;63.1
45313;SHT31;68267;51.540;5.854;2023-07-16T09:15:32;20.9;60.6
45313;SHT31;68267;51.540;5.854;2023-07-16T09:28:52;20.6;61.4
45313;SHT31;68267;51.540;5.854;2023-07-16T09:42:11;20.8;60.0
45313;SHT31;68267;51.540;5.854;2023-07-16T09:55:31;20.7;61.9
45313;SHT31;68267;51.540;5.854;2023-07-16T10:08:51;21.2;60.7
45313;SHT31;68267;51.540;5.854;2023-07-16T10:22:11;20.9;59.1
45313;SHT31;68267;51.540;5.854;2023-07-16T10:35:30;21.0;58.0
45313;SHT31;68267;51.540;5.854;2023-07-16T10:48:50;20.6;61.3
45313;SHT31;68267;51.540;5.854;2023-07-16T11:02:10;20.6;62.4
45313;SHT31;68267;51.540;5.854;2023-07-16T11:15:29;20.7;59.7
45313;SHT31;68267;51.540;5.854;2023-07-16T11:28:49;20.6;60.7
45313;SHT31;68267;51.540;5.854;2023-07-16T11:42:09;20.9;60.5
45313;SHT31;68267;51.540;5.854;2023-07-16T11:55:29;20.7;60.0
45313;SHT31;68267;51.540;5.854;2023-07-16T12:08:48;20.6;61.8
45313;SHT31;68267;51.540;5.854;2023-07-16T12:22:08;21.1;61.4
45313;SHT31;68267;51.540;5.854;2023-07-16T12:35:28;21.1;60.7
45313;SHT31;68267;51.540;5.854;2023-07-16T12:48:47;21.3;59.2
45313;SHT31;68267;51.540;5.854;2023-07-16T13:02:07;21.7;59.0
45313;SHT31;68267;51.540;5.854;2023-07-16T13:15:27;21.4;59.9
45313;SHT31;68267;51.540;5.854;2023-07-16T13:28:46;22.1;58.0
45313;SHT31;68267;51.540;5.854;2023-07-16T13:42:06;22.3;57.9
45313;SHT31;68267;51.540;5.854;2023-07-16T13:55:26;22.4;55.3
45313;SHT31;68267;51.540;5.854;2023-07-16T14:08:45;22.6;57.4
45313;SHT31;68267;51.540;5.854;2023-07-16T14:22:05;22.4;56.9
45313;SHT31;68267;51.540;5.854;2023-07-16T14:35:24;22.7;55.5
45313;SHT31;68267;51.540;5.854;2023-07-16T14:48:44;23.1;56.4
45313;SHT31;68267;51.540;5.854;2023-07-16T15:02:04;22.1;57.6
45313;SHT31;68267;51.540;5.854;2023-07-16T15:15:23;22.2;55.9
45313;SHT31;68267;51.540;5.854;2023-07-16T15:28:43;22.4;55.7
45313;SHT31;68267;51.540;5.854;2023-07-16T15:42:03;22.1;58.5
45313;SHT31;68267;51.540;5.854;2023-07-16T15:55:22;21.9;58.8
45313;SHT31;68267;51.540;5.854;2023-07-16T16:08:42;21.7;58.6
45313;SHT31;68267;51.540;5.854;2023-07-16T16:22:02;21.4;58.8
45313;SHT31;68267;51.540;5.854;2023-07-16T16:35:21;21.7;58.0
45313;SHT31;68267;51.540;5.854;2023-07-16T16:48:41;21.9;55.9
45313;SHT31;68267;51.540;5.854;2023-07-16T17:02:01;21.7;55.9
45313;SHT31;68267;51.540;5.854;2023-07-16T17:15:20;22.0;55.3
45313;SHT31;68267;51.540;5.854;2023-07-16T17:28:40;22.2;56.2
45313;SHT31;68267;51.540;5.854;2023-07-16T17:42:00;21.6;54.4
45313;SHT31;68267;51.540;5.854;2023-07-16T17:55:20;21.2;55.3
45313;SHT31;68267;51.540;5.854;2023-07-16T18:08:39;21.0;55.7
45313;SHT31;68267;51.540;5.854;2023-07-16T18:21:59;21.1;55.6
45313;SHT31;68267;51.540;5.854;2023-07-16T18:35:19;21.1;57.3
45313;SHT31;68267;51.540;5.854;2023-07-16T18:48:38;20.9;59.0
45313;SHT31;68267;51.540;5.854;2023-07-16T19:01:58;20.7;60.0
45313;SHT31;68267;51.540;5.854;2023-07-16T19:15:18;20.6;60.8
45313;SHT31;68267;51.540;5.854;2023-07-16T19:28:37;19.7;66.7
45313;SHT31;68267;51.540;5.854;2023-07-16T19:41:57;19.4;68.2
45313;SHT31;68267;51.540;5.854;2023-07-16T19:55:17;19.3;68.1
45313;SHT31;68267;51.540;5.854;2023-07-16T20:08:37;19.3;67.7
45313;SHT31;68267;51.540;5.854;2023-07-16T20:21:56;19.3;66.0
45313;SHT31;68267;51.540;5.854;2023-07-16T20:35:16;18.6;69.9
45313;SHT31;68267;51.540;5.854;2023-07-16T20:48:36;18.3;71.6
45313;SHT31;68267;51.540;5.854;2023-07-16T21:01:55;18.1;73.8
45313;SHT31;68267;51.540;5.854;2023-07-16T21:15:15;18.0;73.2
45313;SHT31;68267;51.540;5.854;2023-07-16T21:28:35;18.0;72.2
45313;SHT31;68267;51.540;5.854;2023-07-16T21:41:54;18.0;72.5
45313;SHT31;68267;51.540;5.854;2023-07-16T21:55:14;17.7;73.3
45313;SHT31;68267;51.540;5.854;2023-07-16T22:08:34;17.7;73.6
45313;SHT31;68267;51.540;5.854;2023-07-16T22:21:54;17.5;74.8
45313;SHT31;68267;51.540;5.854;2023-07-16T22:35:13;17.5;75.4
45313;SHT31;68267;51.540;5.854;2023-07-16T22:48:33;17.5;76.4
45313;SHT31;68267;51.540;5.854;2023-07-16T23:01:53;17.5;76.5
45313;SHT31;68267;51.540;5.854;2023-07-16T23:15:13;17.6;76.8
45313;SHT31;68267;51.540;5.854;2023-07-16T23:28:32;17.4;78.1
45313;SHT31;68267;51.540;5.854;2023-07-16T23:41:52;17.5;78.1
45313;SHT31;68267;51.540;5.854;2023-07-16T23:55:12;17.4;79.1
